Marshall Don Hunter Sr Airport
PADM : rendu visible

Aérodrome :











RETROUVEZ-NOUS SUR...

 
LOGIN :

S'inscrire | Disclaimer

   EN    FR    IT 

 









Légende :    VFR   VFR Marginal   IFR   IFR Intensif   IFR Très Intensif
Visi : 
Plafond : 
>= 8 km
>= 3000ft
5 à 8 km
1000 à 3000 ft
1500m à 5 km
500 à 1000 ft
800 à 1500m
200 à 500 ft
< 800m
< 200 ft
Symboles :   Orages  Brouillard  Fortes neiges  Fortes précipitations  Vent > 20 kt






- Altitude de l'aérodrome : 103 ft


PADM - Marshall Don Hunter Sr

DERNIER METAR :
  • 271102Z AUTO 07019KT 10SM CLR M17/M22 A2985 RMK AO2 SLP114 T11671217 FZRANO

METARs EXPIRÉS :
  • 271002Z AUTO 06016KT 10SM CLR M17/M22 A2984 RMK AO2 SLP112 T11671217 FZRANO
  • 270902Z AUTO 07017KT 10SM CLR M16/M21 A2983 RMK AO2 PK WND 05030/0812 SLP109 T11611211 51005 FZRANO

TAF N/A



MET'MAP, la Météo Aéronautique d'un coup d'oeil ! - Copyright ORBIFLY Décembre 2007 - Disclaimer

ORBIFLY MET'MAP TEAM :

Programmation & Développement : Alexandra Zaïnal
Sur une idée originale de : Baudouin d'Aumeries
Assistance à la programmation : Marc-Olivier Méhu
Soutien technique & logistique : Manuel Goepfert

Contact : metmap@orbifly.com




SOURCES & CREDITS :

   NOAA       Earth
Advisory